Nuray Senkaya — TCSN6 — position and weather

sailwx.info

Track history (hours):
 
Tides and Currents Weather Stations Pressure Air Temp Water Temp Dewpoint Dewpoint Depression Visibility Wind Speed Wind Dir Waves Ship Positions

Nuray Senkaya

Last reported at 2017-Nov-17 03:23 UTC. Time now 2017-Nov-24 21:00 UTC.
Position N 45°12' E 036°28'.

Length 91 m; draft 7.5 m.

Type: Cargo ship. MMSI: 271000926.

Date/timePositionNaut miles runAvg speedWind from/ knotsBaromVisibWave heightAir tempDewpointWater temp
2017-Nov-17 03:23N 45°12' E 036°28'3 8.0
2017-Nov-17 03:00N 45°15' E 036°27'4 8.2
2017-Nov-17 02:29N 45°19' E 036°31'4 8.0
2017-Nov-17 02:00N 45°20' E 036°36'4 8.2
2017-Nov-17 01:30N 45°23' E 036°40'4 7.8
2017-Nov-17 01:00N 45°27' E 036°41'3 5.6
2017-Nov-17 00:30N 45°29' E 036°39'0 0.1
2017-Nov-17 00:00N 45°29' E 036°39'0 0.0
2017-Nov-16 23:12N 45°29' E 036°39'0 0.0
2017-Nov-16 23:00N 45°29' E 036°39'0 0.0
2017-Nov-16 22:30N 45°29' E 036°39'0 0.0
2017-Nov-16 22:00N 45°29' E 036°39'0 0.0
2017-Nov-16 21:30N 45°29' E 036°39'1 2.4
2017-Nov-16 21:00N 45°30' E 036°39'8 0.2
2017-Nov-15 02:06N 45°37' E 036°45'1 9.2
2017-Nov-15 01:59N 45°36' E 036°45'5 9.0
2017-Nov-15 01:29N 45°32' E 036°45'5 9.1
2017-Nov-15 00:59N 45°27' E 036°42'4 9.4
2017-Nov-15 00:31N 45°23' E 036°40'4 7.0
2017-Nov-15 00:01N 45°21' E 036°37'4 7.4
2017-Nov-14 23:31N 45°19' E 036°32'3 6.8
2017-Nov-14 23:00N 45°17' E 036°29'3 6.9
2017-Nov-14 22:30N 45°13' E 036°29'  
Track history (hours):
 
Tides and Currents Weather Stations Pressure Air Temp Water Temp Dewpoint Dewpoint Depression Visibility Wind Speed Wind Dir Waves Ship Positions

Nuray Senkaya

Last reported at 2017-Nov-17 03:23 UTC. Time now 2017-Nov-24 21:00 UTC.
Position N 45°12' E 036°28'.

Length 91 m; draft 7.5 m.

Type: Cargo ship. MMSI: 271000926.

Date/timePositionNaut miles runAvg speedWind from/ knotsBaromVisibWave heightAir tempDewpointWater temp
2017-Nov-17 03:23N 45°12' E 036°28'3 8.0
2017-Nov-17 03:00N 45°15' E 036°27'4 8.2
2017-Nov-17 02:29N 45°19' E 036°31'4 8.0
2017-Nov-17 02:00N 45°20' E 036°36'4 8.2
2017-Nov-17 01:30N 45°23' E 036°40'4 7.8
2017-Nov-17 01:00N 45°27' E 036°41'3 5.6
2017-Nov-17 00:30N 45°29' E 036°39'0 0.1
2017-Nov-17 00:00N 45°29' E 036°39'0 0.0
2017-Nov-16 23:12N 45°29' E 036°39'0 0.0
2017-Nov-16 23:00N 45°29' E 036°39'0 0.0
2017-Nov-16 22:30N 45°29' E 036°39'0 0.0
2017-Nov-16 22:00N 45°29' E 036°39'0 0.0
2017-Nov-16 21:30N 45°29' E 036°39'1 2.4
2017-Nov-16 21:00N 45°30' E 036°39'8 0.2
2017-Nov-15 02:06N 45°37' E 036°45'1 9.2
2017-Nov-15 01:59N 45°36' E 036°45'5 9.0
2017-Nov-15 01:29N 45°32' E 036°45'5 9.1
2017-Nov-15 00:59N 45°27' E 036°42'4 9.4
2017-Nov-15 00:31N 45°23' E 036°40'4 7.0
2017-Nov-15 00:01N 45°21' E 036°37'4 7.4
2017-Nov-14 23:31N 45°19' E 036°32'3 6.8
2017-Nov-14 23:00N 45°17' E 036°29'3 6.9
2017-Nov-14 22:30N 45°13' E 036°29'  

Dump ship's entire track history